sensor_id;sensor_type;location;lat;lon;timestamp;temperature;humidity
11748;DHT22;5931;48.832;9.072;2023-03-21T00:00:39;8.50;99.90
11748;DHT22;5931;48.832;9.072;2023-03-21T00:03:04;8.50;99.90
11748;DHT22;5931;48.832;9.072;2023-03-21T00:05:30;8.40;99.90
11748;DHT22;5931;48.832;9.072;2023-03-21T00:07:56;8.50;99.90
11748;DHT22;5931;48.832;9.072;2023-03-21T00:10:22;8.50;99.90
11748;DHT22;5931;48.832;9.072;2023-03-21T00:12:48;8.50;99.90
11748;DHT22;5931;48.832;9.072;2023-03-21T00:15:19;8.40;99.90
11748;DHT22;5931;48.832;9.072;2023-03-21T00:17:45;8.40;99.90
11748;DHT22;5931;48.832;9.072;2023-03-21T00:20:15;8.40;99.90
11748;DHT22;5931;48.832;9.072;2023-03-21T00:22:41;8.40;99.90
11748;DHT22;5931;48.832;9.072;2023-03-21T00:25:08;8.40;99.90
11748;DHT22;5931;48.832;9.072;2023-03-21T00:27:35;8.40;99.90
11748;DHT22;5931;48.832;9.072;2023-03-21T00:30:01;8.40;99.90
11748;DHT22;5931;48.832;9.072;2023-03-21T00:32:26;8.40;99.90
11748;DHT22;5931;48.832;9.072;2023-03-21T00:34:52;8.40;99.90
11748;DHT22;5931;48.832;9.072;2023-03-21T00:37:18;8.40;99.90
11748;DHT22;5931;48.832;9.072;2023-03-21T00:39:45;8.40;99.90
11748;DHT22;5931;48.832;9.072;2023-03-21T00:42:16;8.40;99.90
11748;DHT22;5931;48.832;9.072;2023-03-21T00:44:42;8.40;99.90
11748;DHT22;5931;48.832;9.072;2023-03-21T00:47:12;8.40;99.90
11748;DHT22;5931;48.832;9.072;2023-03-21T00:49:38;8.50;99.90
11748;DHT22;5931;48.832;9.072;2023-03-21T00:52:07;8.50;99.90
11748;DHT22;5931;48.832;9.072;2023-03-21T00:54:34;8.50;99.90
11748;DHT22;5931;48.832;9.072;2023-03-21T00:57:00;8.50;99.90
11748;DHT22;5931;48.832;9.072;2023-03-21T00:59:29;8.50;99.90
11748;DHT22;5931;48.832;9.072;2023-03-21T01:01:55;8.50;99.90
11748;DHT22;5931;48.832;9.072;2023-03-21T01:04:21;8.50;99.90
11748;DHT22;5931;48.832;9.072;2023-03-21T01:06:51;8.50;99.90
11748;DHT22;5931;48.832;9.072;2023-03-21T01:09:19;8.50;99.90
11748;DHT22;5931;48.832;9.072;2023-03-21T01:11:46;8.50;99.90
11748;DHT22;5931;48.832;9.072;2023-03-21T01:14:14;8.40;99.90
11748;DHT22;5931;48.832;9.072;2023-03-21T01:16:40;8.40;99.90
11748;DHT22;5931;48.832;9.072;2023-03-21T01:19:08;8.40;99.90
11748;DHT22;5931;48.832;9.072;2023-03-21T01:21:34;8.40;99.90
11748;DHT22;5931;48.832;9.072;2023-03-21T01:24:00;8.30;99.90
11748;DHT22;5931;48.832;9.072;2023-03-21T01:26:27;8.30;99.90
11748;DHT22;5931;48.832;9.072;2023-03-21T01:28:53;8.30;99.90
11748;DHT22;5931;48.832;9.072;2023-03-21T01:38:47;8.40;99.90
11748;DHT22;5931;48.832;9.072;2023-03-21T01:41:37;8.40;99.90
11748;DHT22;5931;48.832;9.072;2023-03-21T01:44:05;8.40;99.90
11748;DHT22;5931;48.832;9.072;2023-03-21T01:46:50;8.40;99.90
11748;DHT22;5931;48.832;9.072;2023-03-21T01:49:40;8.40;99.90
11748;DHT22;5931;48.832;9.072;2023-03-21T01:52:18;8.40;99.90
11748;DHT22;5931;48.832;9.072;2023-03-21T01:54:45;8.50;99.90
11748;DHT22;5931;48.832;9.072;2023-03-21T01:57:21;8.40;99.90
11748;DHT22;5931;48.832;9.072;2023-03-21T01:59:52;8.40;99.90
11748;DHT22;5931;48.832;9.072;2023-03-21T02:02:27;8.50;99.90
11748;DHT22;5931;48.832;9.072;2023-03-21T02:05:14;8.60;99.90
11748;DHT22;5931;48.832;9.072;2023-03-21T02:07:41;8.50;99.90
11748;DHT22;5931;48.832;9.072;2023-03-21T02:10:11;8.40;99.90
11748;DHT22;5931;48.832;9.072;2023-03-21T02:12:41;8.30;99.90
11748;DHT22;5931;48.832;9.072;2023-03-21T02:15:08;8.20;99.90
11748;DHT22;5931;48.832;9.072;2023-03-21T02:27:21;8.10;99.90
11748;DHT22;5931;48.832;9.072;2023-03-21T02:38:54;8.00;99.90
11748;DHT22;5931;48.832;9.072;2023-03-21T02:41:27;8.00;99.90
11748;DHT22;5931;48.832;9.072;2023-03-21T02:43:58;7.90;99.90
11748;DHT22;5931;48.832;9.072;2023-03-21T02:46:53;8.00;99.90
11748;DHT22;5931;48.832;9.072;2023-03-21T02:49:29;7.90;99.90
11748;DHT22;5931;48.832;9.072;2023-03-21T02:51:59;7.90;99.90
11748;DHT22;5931;48.832;9.072;2023-03-21T02:54:27;8.00;99.90
11748;DHT22;5931;48.832;9.072;2023-03-21T02:56:58;8.00;99.90
11748;DHT22;5931;48.832;9.072;2023-03-21T02:59:26;7.90;99.90
11748;DHT22;5931;48.832;9.072;2023-03-21T03:01:55;7.90;99.90
11748;DHT22;5931;48.832;9.072;2023-03-21T03:04:24;8.00;99.90
11748;DHT22;5931;48.832;9.072;2023-03-21T03:07:02;8.00;99.90
11748;DHT22;5931;48.832;9.072;2023-03-21T03:09:50;8.00;99.90
11748;DHT22;5931;48.832;9.072;2023-03-21T03:12:44;8.00;99.90
11748;DHT22;5931;48.832;9.072;2023-03-21T03:18:31;7.80;99.90
11748;DHT22;5931;48.832;9.072;2023-03-21T03:26:12;7.80;99.90
11748;DHT22;5931;48.832;9.072;2023-03-21T03:28:49;7.70;99.90
11748;DHT22;5931;48.832;9.072;2023-03-21T03:31:22;7.70;99.90
11748;DHT22;5931;48.832;9.072;2023-03-21T03:33:55;7.60;99.90
11748;DHT22;5931;48.832;9.072;2023-03-21T03:36:28;7.60;99.90
11748;DHT22;5931;48.832;9.072;2023-03-21T03:38:56;7.60;99.90
11748;DHT22;5931;48.832;9.072;2023-03-21T03:41:26;7.60;99.90
11748;DHT22;5931;48.832;9.072;2023-03-21T03:43:58;7.60;99.90
11748;DHT22;5931;48.832;9.072;2023-03-21T03:46:46;7.60;99.90
11748;DHT22;5931;48.832;9.072;2023-03-21T03:49:25;7.60;99.90
11748;DHT22;5931;48.832;9.072;2023-03-21T03:51:58;7.60;99.90
11748;DHT22;5931;48.832;9.072;2023-03-21T03:54:38;7.60;99.90
11748;DHT22;5931;48.832;9.072;2023-03-21T03:57:04;7.60;99.90
11748;DHT22;5931;48.832;9.072;2023-03-21T03:59:35;7.60;99.90
11748;DHT22;5931;48.832;9.072;2023-03-21T04:02:20;7.60;99.90
11748;DHT22;5931;48.832;9.072;2023-03-21T04:04:47;7.60;99.90
11748;DHT22;5931;48.832;9.072;2023-03-21T04:07:18;7.50;99.90
11748;DHT22;5931;48.832;9.072;2023-03-21T04:09:44;7.50;99.90
11748;DHT22;5931;48.832;9.072;2023-03-21T04:12:12;7.40;99.90
11748;DHT22;5931;48.832;9.072;2023-03-21T04:14:39;7.40;99.90
11748;DHT22;5931;48.832;9.072;2023-03-21T04:17:05;7.30;99.90
11748;DHT22;5931;48.832;9.072;2023-03-21T04:19:31;7.20;99.90
11748;DHT22;5931;48.832;9.072;2023-03-21T04:21:57;7.10;99.90
11748;DHT22;5931;48.832;9.072;2023-03-21T04:24:23;7.00;99.90
11748;DHT22;5931;48.832;9.072;2023-03-21T04:26:48;6.90;99.90
11748;DHT22;5931;48.832;9.072;2023-03-21T04:29:34;6.80;99.90
11748;DHT22;5931;48.832;9.072;2023-03-21T04:32:24;6.80;99.90
11748;DHT22;5931;48.832;9.072;2023-03-21T04:35:00;6.80;99.90
11748;DHT22;5931;48.832;9.072;2023-03-21T04:37:26;6.70;99.90
11748;DHT22;5931;48.832;9.072;2023-03-21T04:39:52;6.70;99.90
11748;DHT22;5931;48.832;9.072;2023-03-21T04:42:18;6.60;99.90
11748;DHT22;5931;48.832;9.072;2023-03-21T04:44:45;6.60;99.90
11748;DHT22;5931;48.832;9.072;2023-03-21T04:47:11;6.60;99.90
11748;DHT22;5931;48.832;9.072;2023-03-21T04:49:38;6.60;99.90
11748;DHT22;5931;48.832;9.072;2023-03-21T04:52:04;6.60;99.90
11748;DHT22;5931;48.832;9.072;2023-03-21T04:54:30;6.60;99.90
11748;DHT22;5931;48.832;9.072;2023-03-21T04:56:57;6.60;99.90
11748;DHT22;5931;48.832;9.072;2023-03-21T04:59:25;6.60;99.90
11748;DHT22;5931;48.832;9.072;2023-03-21T05:01:51;6.60;99.90
11748;DHT22;5931;48.832;9.072;2023-03-21T05:04:17;6.50;99.90
11748;DHT22;5931;48.832;9.072;2023-03-21T05:06:44;6.50;99.90
11748;DHT22;5931;48.832;9.072;2023-03-21T05:09:11;6.50;99.90
11748;DHT22;5931;48.832;9.072;2023-03-21T05:11:38;6.50;99.90
11748;DHT22;5931;48.832;9.072;2023-03-21T05:14:07;6.50;99.90
11748;DHT22;5931;48.832;9.072;2023-03-21T05:16:34;6.40;99.90
11748;DHT22;5931;48.832;9.072;2023-03-21T05:19:01;6.40;99.90
11748;DHT22;5931;48.832;9.072;2023-03-21T05:21:33;6.30;99.90
11748;DHT22;5931;48.832;9.072;2023-03-21T05:24:11;6.20;99.90
11748;DHT22;5931;48.832;9.072;2023-03-21T05:26:38;6.10;99.90
11748;DHT22;5931;48.832;9.072;2023-03-21T05:29:11;6.10;99.90
11748;DHT22;5931;48.832;9.072;2023-03-21T05:31:38;6.00;99.90
11748;DHT22;5931;48.832;9.072;2023-03-21T05:34:08;5.90;99.90
11748;DHT22;5931;48.832;9.072;2023-03-21T05:36:34;5.90;99.90
11748;DHT22;5931;48.832;9.072;2023-03-21T05:39:02;5.90;99.90
11748;DHT22;5931;48.832;9.072;2023-03-21T05:41:30;5.90;99.90
11748;DHT22;5931;48.832;9.072;2023-03-21T05:43:57;5.90;99.90
11748;DHT22;5931;48.832;9.072;2023-03-21T05:46:22;6.00;99.90
11748;DHT22;5931;48.832;9.072;2023-03-21T05:48:48;6.00;99.90
11748;DHT22;5931;48.832;9.072;2023-03-21T05:51:17;6.10;99.90
11748;DHT22;5931;48.832;9.072;2023-03-21T05:53:42;6.20;99.90
11748;DHT22;5931;48.832;9.072;2023-03-21T05:56:09;6.20;99.90
11748;DHT22;5931;48.832;9.072;2023-03-21T05:58:55;6.20;99.90
11748;DHT22;5931;48.832;9.072;2023-03-21T06:01:22;6.30;99.90
11748;DHT22;5931;48.832;9.072;2023-03-21T06:04:04;6.30;99.90
11748;DHT22;5931;48.832;9.072;2023-03-21T06:06:30;6.30;99.90
11748;DHT22;5931;48.832;9.072;2023-03-21T06:08:59;6.20;99.90
11748;DHT22;5931;48.832;9.072;2023-03-21T06:11:27;6.30;99.90
11748;DHT22;5931;48.832;9.072;2023-03-21T06:14:10;6.30;99.90
11748;DHT22;5931;48.832;9.072;2023-03-21T06:16:36;6.30;99.90
11748;DHT22;5931;48.832;9.072;2023-03-21T06:19:02;6.30;99.90
11748;DHT22;5931;48.832;9.072;2023-03-21T06:21:55;6.30;99.90
11748;DHT22;5931;48.832;9.072;2023-03-21T06:24:20;6.30;99.90
11748;DHT22;5931;48.832;9.072;2023-03-21T06:26:47;6.30;99.90
11748;DHT22;5931;48.832;9.072;2023-03-21T06:29:13;6.30;99.90
11748;DHT22;5931;48.832;9.072;2023-03-21T06:31:45;6.40;99.90
11748;DHT22;5931;48.832;9.072;2023-03-21T06:34:11;6.40;99.90
11748;DHT22;5931;48.832;9.072;2023-03-21T06:36:37;6.50;99.90
11748;DHT22;5931;48.832;9.072;2023-03-21T06:39:04;6.50;99.90
11748;DHT22;5931;48.832;9.072;2023-03-21T06:41:32;6.60;99.90
11748;DHT22;5931;48.832;9.072;2023-03-21T06:44:02;6.70;99.90
11748;DHT22;5931;48.832;9.072;2023-03-21T06:46:31;6.80;99.90
11748;DHT22;5931;48.832;9.072;2023-03-21T06:48:57;6.90;99.90
11748;DHT22;5931;48.832;9.072;2023-03-21T06:51:24;7.10;99.90
11748;DHT22;5931;48.832;9.072;2023-03-21T06:54:04;7.40;99.90
11748;DHT22;5931;48.832;9.072;2023-03-21T06:56:45;7.50;99.90
11748;DHT22;5931;48.832;9.072;2023-03-21T06:59:18;7.60;99.90
11748;DHT22;5931;48.832;9.072;2023-03-21T07:01:54;7.70;99.90
11748;DHT22;5931;48.832;9.072;2023-03-21T07:04:19;7.80;99.90
11748;DHT22;5931;48.832;9.072;2023-03-21T07:06:45;7.90;99.90
11748;DHT22;5931;48.832;9.072;2023-03-21T07:09:11;8.00;99.90
11748;DHT22;5931;48.832;9.072;2023-03-21T07:11:37;8.20;99.90
11748;DHT22;5931;48.832;9.072;2023-03-21T07:14:04;8.30;99.90
11748;DHT22;5931;48.832;9.072;2023-03-21T07:16:29;8.40;99.90
11748;DHT22;5931;48.832;9.072;2023-03-21T07:18:55;8.60;99.90
11748;DHT22;5931;48.832;9.072;2023-03-21T07:21:21;8.80;99.90
11748;DHT22;5931;48.832;9.072;2023-03-21T07:23:47;8.90;99.90
11748;DHT22;5931;48.832;9.072;2023-03-21T07:26:14;9.00;99.90
11748;DHT22;5931;48.832;9.072;2023-03-21T07:28:42;9.10;99.90
11748;DHT22;5931;48.832;9.072;2023-03-21T07:31:13;9.20;99.90
11748;DHT22;5931;48.832;9.072;2023-03-21T07:33:39;9.20;99.90
11748;DHT22;5931;48.832;9.072;2023-03-21T07:36:09;9.40;99.90
11748;DHT22;5931;48.832;9.072;2023-03-21T07:38:37;9.50;99.90
11748;DHT22;5931;48.832;9.072;2023-03-21T07:41:03;9.60;99.90
11748;DHT22;5931;48.832;9.072;2023-03-21T07:43:32;9.80;99.90
11748;DHT22;5931;48.832;9.072;2023-03-21T07:45:58;10.00;99.90
11748;DHT22;5931;48.832;9.072;2023-03-21T07:48:26;10.10;99.90
11748;DHT22;5931;48.832;9.072;2023-03-21T07:50:52;10.30;99.90
11748;DHT22;5931;48.832;9.072;2023-03-21T07:53:18;10.30;99.90
11748;DHT22;5931;48.832;9.072;2023-03-21T07:55:44;10.30;99.90
11748;DHT22;5931;48.832;9.072;2023-03-21T07:58:09;10.30;99.90
11748;DHT22;5931;48.832;9.072;2023-03-21T08:00:35;10.30;99.90
11748;DHT22;5931;48.832;9.072;2023-03-21T08:03:01;10.40;99.90
11748;DHT22;5931;48.832;9.072;2023-03-21T08:05:29;10.60;99.90
11748;DHT22;5931;48.832;9.072;2023-03-21T08:07:57;10.70;99.90
11748;DHT22;5931;48.832;9.072;2023-03-21T08:10:23;10.90;99.90
11748;DHT22;5931;48.832;9.072;2023-03-21T08:12:49;11.00;99.90
11748;DHT22;5931;48.832;9.072;2023-03-21T08:15:15;11.10;99.90
11748;DHT22;5931;48.832;9.072;2023-03-21T08:17:41;11.20;99.90
11748;DHT22;5931;48.832;9.072;2023-03-21T08:20:11;11.40;99.90
11748;DHT22;5931;48.832;9.072;2023-03-21T08:22:37;11.50;99.90
11748;DHT22;5931;48.832;9.072;2023-03-21T08:25:04;11.70;99.90
11748;DHT22;5931;48.832;9.072;2023-03-21T08:27:31;11.80;99.90
11748;DHT22;5931;48.832;9.072;2023-03-21T08:29:58;11.90;99.90
11748;DHT22;5931;48.832;9.072;2023-03-21T08:32:24;12.10;99.90
11748;DHT22;5931;48.832;9.072;2023-03-21T08:34:57;12.20;99.90
11748;DHT22;5931;48.832;9.072;2023-03-21T08:37:24;12.30;99.90
11748;DHT22;5931;48.832;9.072;2023-03-21T08:39:50;12.30;99.90
11748;DHT22;5931;48.832;9.072;2023-03-21T08:42:16;12.30;99.90
11748;DHT22;5931;48.832;9.072;2023-03-21T08:44:42;12.30;99.90
11748;DHT22;5931;48.832;9.072;2023-03-21T08:47:08;12.50;99.90
11748;DHT22;5931;48.832;9.072;2023-03-21T08:49:36;12.60;99.90
11748;DHT22;5931;48.832;9.072;2023-03-21T08:52:03;12.70;99.90
11748;DHT22;5931;48.832;9.072;2023-03-21T08:54:29;12.80;99.90
11748;DHT22;5931;48.832;9.072;2023-03-21T08:56:54;12.90;99.90
11748;DHT22;5931;48.832;9.072;2023-03-21T08:59:20;13.00;99.90
11748;DHT22;5931;48.832;9.072;2023-03-21T09:01:46;13.10;99.90
11748;DHT22;5931;48.832;9.072;2023-03-21T09:04:12;13.10;99.90
11748;DHT22;5931;48.832;9.072;2023-03-21T09:06:38;13.10;99.90
11748;DHT22;5931;48.832;9.072;2023-03-21T09:09:10;13.30;99.90
11748;DHT22;5931;48.832;9.072;2023-03-21T09:11:37;13.40;99.90
11748;DHT22;5931;48.832;9.072;2023-03-21T09:14:03;13.60;99.90
11748;DHT22;5931;48.832;9.072;2023-03-21T09:16:29;13.70;99.90
11748;DHT22;5931;48.832;9.072;2023-03-21T09:18:55;13.90;99.90
11748;DHT22;5931;48.832;9.072;2023-03-21T09:21:24;14.00;99.90
11748;DHT22;5931;48.832;9.072;2023-03-21T09:23:50;14.10;99.90
11748;DHT22;5931;48.832;9.072;2023-03-21T09:26:21;14.30;99.90
11748;DHT22;5931;48.832;9.072;2023-03-21T09:28:47;14.60;99.90
11748;DHT22;5931;48.832;9.072;2023-03-21T09:31:13;14.80;99.90
11748;DHT22;5931;48.832;9.072;2023-03-21T09:33:41;14.90;99.90
11748;DHT22;5931;48.832;9.072;2023-03-21T09:36:09;15.00;99.90
11748;DHT22;5931;48.832;9.072;2023-03-21T09:38:47;15.30;99.90
11748;DHT22;5931;48.832;9.072;2023-03-21T09:49:31;16.30;98.70
11748;DHT22;5931;48.832;9.072;2023-03-21T09:52:02;16.10;99.90
11748;DHT22;5931;48.832;9.072;2023-03-21T09:54:36;16.00;99.90
11748;DHT22;5931;48.832;9.072;2023-03-21T09:57:24;15.90;98.60
11748;DHT22;5931;48.832;9.072;2023-03-21T09:59:53;16.00;99.90
11748;DHT22;5931;48.832;9.072;2023-03-21T10:02:42;16.10;98.80
11748;DHT22;5931;48.832;9.072;2023-03-21T10:05:21;16.10;98.30
11748;DHT22;5931;48.832;9.072;2023-03-21T10:08:05;16.20;99.00
11748;DHT22;5931;48.832;9.072;2023-03-21T10:10:43;16.50;99.10
11748;DHT22;5931;48.832;9.072;2023-03-21T10:13:19;16.60;98.30
11748;DHT22;5931;48.832;9.072;2023-03-21T10:15:46;16.60;98.50
11748;DHT22;5931;48.832;9.072;2023-03-21T10:18:20;17.10;97.80
11748;DHT22;5931;48.832;9.072;2023-03-21T10:20:48;17.10;99.50
11748;DHT22;5931;48.832;9.072;2023-03-21T10:23:16;17.30;98.60
11748;DHT22;5931;48.832;9.072;2023-03-21T10:25:55;17.40;97.70
11748;DHT22;5931;48.832;9.072;2023-03-21T10:28:29;17.20;97.00
11748;DHT22;5931;48.832;9.072;2023-03-21T10:31:02;17.20;99.40
11748;DHT22;5931;48.832;9.072;2023-03-21T10:33:39;17.30;97.80
11748;DHT22;5931;48.832;9.072;2023-03-21T10:36:10;17.70;99.90
11748;DHT22;5931;48.832;9.072;2023-03-21T10:38:41;18.00;98.10
11748;DHT22;5931;48.832;9.072;2023-03-21T10:41:10;18.20;97.70
11748;DHT22;5931;48.832;9.072;2023-03-21T10:43:37;18.30;97.40
11748;DHT22;5931;48.832;9.072;2023-03-21T10:46:19;18.10;98.20
11748;DHT22;5931;48.832;9.072;2023-03-21T10:48:52;18.30;98.70
11748;DHT22;5931;48.832;9.072;2023-03-21T10:51:26;18.00;98.30
11748;DHT22;5931;48.832;9.072;2023-03-21T10:53:55;17.90;96.50
11748;DHT22;5931;48.832;9.072;2023-03-21T10:56:27;17.90;96.40
11748;DHT22;5931;48.832;9.072;2023-03-21T10:58:56;17.70;96.60
11748;DHT22;5931;48.832;9.072;2023-03-21T11:01:38;18.20;96.80
11748;DHT22;5931;48.832;9.072;2023-03-21T11:04:17;17.70;96.20
11748;DHT22;5931;48.832;9.072;2023-03-21T11:06:58;17.50;95.40
11748;DHT22;5931;48.832;9.072;2023-03-21T11:10:11;17.70;96.50
11748;DHT22;5931;48.832;9.072;2023-03-21T11:12:36;18.00;96.10
11748;DHT22;5931;48.832;9.072;2023-03-21T11:17:50;18.20;94.20
11748;DHT22;5931;48.832;9.072;2023-03-21T11:20:17;17.70;93.70
11748;DHT22;5931;48.832;9.072;2023-03-21T11:22:44;17.80;95.60
11748;DHT22;5931;48.832;9.072;2023-03-21T11:25:23;18.10;95.50
11748;DHT22;5931;48.832;9.072;2023-03-21T11:27:53;17.90;95.30
11748;DHT22;5931;48.832;9.072;2023-03-21T11:30:21;17.90;94.90
11748;DHT22;5931;48.832;9.072;2023-03-21T11:32:54;17.90;94.30
11748;DHT22;5931;48.832;9.072;2023-03-21T11:35:26;18.00;94.20
11748;DHT22;5931;48.832;9.072;2023-03-21T11:37:55;17.80;94.80
11748;DHT22;5931;48.832;9.072;2023-03-21T11:40:29;18.00;96.00
11748;DHT22;5931;48.832;9.072;2023-03-21T11:43:01;18.00;96.80
11748;DHT22;5931;48.832;9.072;2023-03-21T11:45:34;17.80;97.30
11748;DHT22;5931;48.832;9.072;2023-03-21T11:48:11;17.90;96.50
11748;DHT22;5931;48.832;9.072;2023-03-21T11:50:40;18.10;96.20
11748;DHT22;5931;48.832;9.072;2023-03-21T11:53:33;18.20;95.70
11748;DHT22;5931;48.832;9.072;2023-03-21T11:59:18;18.40;92.00
11748;DHT22;5931;48.832;9.072;2023-03-21T12:04:58;18.10;92.80
11748;DHT22;5931;48.832;9.072;2023-03-21T12:07:48;18.00;91.90
11748;DHT22;5931;48.832;9.072;2023-03-21T12:10:38;18.10;93.20
11748;DHT22;5931;48.832;9.072;2023-03-21T12:13:20;17.90;93.40
11748;DHT22;5931;48.832;9.072;2023-03-21T12:16:02;18.00;92.30
11748;DHT22;5931;48.832;9.072;2023-03-21T12:24:22;18.00;93.20
11748;DHT22;5931;48.832;9.072;2023-03-21T12:30:14;18.30;94.80
11748;DHT22;5931;48.832;9.072;2023-03-21T12:32:57;18.30;94.40
11748;DHT22;5931;48.832;9.072;2023-03-21T12:38:00;18.50;93.80
11748;DHT22;5931;48.832;9.072;2023-03-21T12:43:34;18.70;94.20
11748;DHT22;5931;48.832;9.072;2023-03-21T12:46:31;18.90;93.30
11748;DHT22;5931;48.832;9.072;2023-03-21T12:51:42;19.40;94.30
11748;DHT22;5931;48.832;9.072;2023-03-21T12:54:31;19.60;94.20
11748;DHT22;5931;48.832;9.072;2023-03-21T12:57:11;19.70;94.00
11748;DHT22;5931;48.832;9.072;2023-03-21T13:02:32;18.90;93.70
11748;DHT22;5931;48.832;9.072;2023-03-21T13:07:46;18.60;93.20
11748;DHT22;5931;48.832;9.072;2023-03-21T13:10:15;18.80;94.10
11748;DHT22;5931;48.832;9.072;2023-03-21T13:13:04;18.70;93.80
11748;DHT22;5931;48.832;9.072;2023-03-21T13:16:01;18.90;94.10
11748;DHT22;5931;48.832;9.072;2023-03-21T13:24:01;18.30;94.80
11748;DHT22;5931;48.832;9.072;2023-03-21T13:26:41;18.40;94.70
11748;DHT22;5931;48.832;9.072;2023-03-21T13:29:59;17.70;95.10
11748;DHT22;5931;48.832;9.072;2023-03-21T13:32:08;17.80;95.00
11748;DHT22;5931;48.832;9.072;2023-03-21T13:34:37;17.60;95.20
11748;DHT22;5931;48.832;9.072;2023-03-21T13:37:04;17.40;95.50
11748;DHT22;5931;48.832;9.072;2023-03-21T13:39:30;17.40;96.00
11748;DHT22;5931;48.832;9.072;2023-03-21T13:42:04;17.50;95.90
11748;DHT22;5931;48.832;9.072;2023-03-21T13:44:38;17.60;96.20
11748;DHT22;5931;48.832;9.072;2023-03-21T13:52:38;17.60;95.90
11748;DHT22;5931;48.832;9.072;2023-03-21T13:55:15;17.40;96.60
11748;DHT22;5931;48.832;9.072;2023-03-21T13:57:46;17.20;98.10
11748;DHT22;5931;48.832;9.072;2023-03-21T14:00:41;16.80;98.30
11748;DHT22;5931;48.832;9.072;2023-03-21T14:03:08;16.60;98.80
11748;DHT22;5931;48.832;9.072;2023-03-21T14:05:37;16.60;98.70
11748;DHT22;5931;48.832;9.072;2023-03-21T14:08:08;16.30;99.10
11748;DHT22;5931;48.832;9.072;2023-03-21T14:10:42;16.50;99.30
11748;DHT22;5931;48.832;9.072;2023-03-21T14:13:14;16.40;99.00
11748;DHT22;5931;48.832;9.072;2023-03-21T14:16:04;16.50;99.30
11748;DHT22;5931;48.832;9.072;2023-03-21T14:21:20;16.70;98.70
11748;DHT22;5931;48.832;9.072;2023-03-21T14:23:46;17.00;98.80
11748;DHT22;5931;48.832;9.072;2023-03-21T14:26:12;17.30;98.70
11748;DHT22;5931;48.832;9.072;2023-03-21T14:28:46;17.30;99.00
11748;DHT22;5931;48.832;9.072;2023-03-21T14:31:14;17.20;98.60
11748;DHT22;5931;48.832;9.072;2023-03-21T14:33:45;17.10;98.80
11748;DHT22;5931;48.832;9.072;2023-03-21T14:36:16;16.80;98.40
11748;DHT22;5931;48.832;9.072;2023-03-21T14:41:31;16.50;99.10
11748;DHT22;5931;48.832;9.072;2023-03-21T14:46:46;16.90;99.40
11748;DHT22;5931;48.832;9.072;2023-03-21T14:49:30;17.00;98.40
11748;DHT22;5931;48.832;9.072;2023-03-21T14:52:00;16.60;98.80
11748;DHT22;5931;48.832;9.072;2023-03-21T14:54:26;16.70;98.80
11748;DHT22;5931;48.832;9.072;2023-03-21T14:56:56;16.50;99.10
11748;DHT22;5931;48.832;9.072;2023-03-21T14:59:26;16.50;98.80
11748;DHT22;5931;48.832;9.072;2023-03-21T15:01:54;16.60;99.20
11748;DHT22;5931;48.832;9.072;2023-03-21T15:04:20;16.50;99.40
11748;DHT22;5931;48.832;9.072;2023-03-21T15:06:57;16.40;99.30
11748;DHT22;5931;48.832;9.072;2023-03-21T15:09:28;16.20;99.20
11748;DHT22;5931;48.832;9.072;2023-03-21T15:11:56;16.20;99.60
11748;DHT22;5931;48.832;9.072;2023-03-21T15:14:28;16.40;99.60
11748;DHT22;5931;48.832;9.072;2023-03-21T15:16:55;16.90;99.90
11748;DHT22;5931;48.832;9.072;2023-03-21T15:19:31;17.20;99.10
11748;DHT22;5931;48.832;9.072;2023-03-21T15:24:51;16.60;99.20
11748;DHT22;5931;48.832;9.072;2023-03-21T15:27:19;16.60;99.50
11748;DHT22;5931;48.832;9.072;2023-03-21T15:29:49;16.40;99.60
11748;DHT22;5931;48.832;9.072;2023-03-21T15:32:20;16.20;99.50
11748;DHT22;5931;48.832;9.072;2023-03-21T15:34:47;16.20;99.90
11748;DHT22;5931;48.832;9.072;2023-03-21T15:37:23;16.30;99.90
11748;DHT22;5931;48.832;9.072;2023-03-21T15:39:52;15.90;99.90
11748;DHT22;5931;48.832;9.072;2023-03-21T15:42:33;15.80;99.90
11748;DHT22;5931;48.832;9.072;2023-03-21T15:45:16;15.60;99.90
11748;DHT22;5931;48.832;9.072;2023-03-21T15:47:50;15.50;99.90
11748;DHT22;5931;48.832;9.072;2023-03-21T15:53:02;15.40;99.90
11748;DHT22;5931;48.832;9.072;2023-03-21T15:55:31;15.40;99.90
11748;DHT22;5931;48.832;9.072;2023-03-21T15:58:03;15.30;99.90
11748;DHT22;5931;48.832;9.072;2023-03-21T16:03:26;15.30;99.90
11748;DHT22;5931;48.832;9.072;2023-03-21T16:08:51;15.20;99.90
11748;DHT22;5931;48.832;9.072;2023-03-21T16:11:25;15.20;99.90
11748;DHT22;5931;48.832;9.072;2023-03-21T16:13:54;15.20;99.90
11748;DHT22;5931;48.832;9.072;2023-03-21T16:18:46;15.20;99.90
11748;DHT22;5931;48.832;9.072;2023-03-21T16:21:13;15.00;99.90
11748;DHT22;5931;48.832;9.072;2023-03-21T16:23:39;14.90;99.90
11748;DHT22;5931;48.832;9.072;2023-03-21T16:26:05;14.90;99.90
11748;DHT22;5931;48.832;9.072;2023-03-21T16:28:31;14.70;99.90
11748;DHT22;5931;48.832;9.072;2023-03-21T16:30:57;14.50;99.90
11748;DHT22;5931;48.832;9.072;2023-03-21T16:33:22;14.50;99.90
11748;DHT22;5931;48.832;9.072;2023-03-21T16:35:50;14.60;99.90
11748;DHT22;5931;48.832;9.072;2023-03-21T16:38:16;14.50;99.90
11748;DHT22;5931;48.832;9.072;2023-03-21T16:40:42;14.50;99.90
11748;DHT22;5931;48.832;9.072;2023-03-21T16:43:09;14.50;99.90
11748;DHT22;5931;48.832;9.072;2023-03-21T16:45:35;14.40;99.90
11748;DHT22;5931;48.832;9.072;2023-03-21T16:48:01;14.40;99.90
11748;DHT22;5931;48.832;9.072;2023-03-21T16:50:35;14.30;99.90
11748;DHT22;5931;48.832;9.072;2023-03-21T16:53:03;14.10;99.90
11748;DHT22;5931;48.832;9.072;2023-03-21T16:55:30;14.10;99.90
11748;DHT22;5931;48.832;9.072;2023-03-21T16:57:58;14.00;99.90
11748;DHT22;5931;48.832;9.072;2023-03-21T17:00:25;14.00;99.90
11748;DHT22;5931;48.832;9.072;2023-03-21T17:02:53;13.90;99.90
11748;DHT22;5931;48.832;9.072;2023-03-21T17:05:21;13.90;99.90
11748;DHT22;5931;48.832;9.072;2023-03-21T17:07:47;13.90;99.90
11748;DHT22;5931;48.832;9.072;2023-03-21T17:10:17;13.80;99.90
11748;DHT22;5931;48.832;9.072;2023-03-21T17:12:43;13.70;99.90
11748;DHT22;5931;48.832;9.072;2023-03-21T17:15:09;13.60;99.90
11748;DHT22;5931;48.832;9.072;2023-03-21T17:17:35;13.60;99.90
11748;DHT22;5931;48.832;9.072;2023-03-21T17:20:14;13.60;99.90
11748;DHT22;5931;48.832;9.072;2023-03-21T17:22:40;13.50;99.90
11748;DHT22;5931;48.832;9.072;2023-03-21T17:25:06;13.40;99.90
11748;DHT22;5931;48.832;9.072;2023-03-21T17:27:32;13.30;99.90
11748;DHT22;5931;48.832;9.072;2023-03-21T17:29:58;13.20;99.90
11748;DHT22;5931;48.832;9.072;2023-03-21T17:32:23;13.10;99.90
11748;DHT22;5931;48.832;9.072;2023-03-21T17:34:49;13.00;99.90
11748;DHT22;5931;48.832;9.072;2023-03-21T17:37:18;13.00;99.90
11748;DHT22;5931;48.832;9.072;2023-03-21T17:39:44;12.90;99.90
11748;DHT22;5931;48.832;9.072;2023-03-21T17:42:14;12.80;99.90
11748;DHT22;5931;48.832;9.072;2023-03-21T17:44:40;12.80;99.90
11748;DHT22;5931;48.832;9.072;2023-03-21T17:47:07;12.70;99.90
11748;DHT22;5931;48.832;9.072;2023-03-21T17:49:33;12.70;99.90
11748;DHT22;5931;48.832;9.072;2023-03-21T17:51:59;12.70;99.90
11748;DHT22;5931;48.832;9.072;2023-03-21T17:54:25;12.60;99.90
11748;DHT22;5931;48.832;9.072;2023-03-21T17:56:50;12.60;99.90
11748;DHT22;5931;48.832;9.072;2023-03-21T17:59:16;12.60;99.90
11748;DHT22;5931;48.832;9.072;2023-03-21T18:01:42;12.60;99.90